Mesa.AZweather.com - Mesa, AZ
   Red Mountain Frwy and University Dr., El 1518 ft.
       --- Friday  Sep. 13, 2019 ---
 
 High Temperature ..  106F at 16:10
 Low Temperature ...  69F at 05:52
 
 High Humidity .....  40% at 06:05
 Low Humidity ......  11% at 13:54
 
 Rainfall Total ....  0.00 in.
 
 High Wind Speed ... ---
                     
 
 High Barometer ....  29.99 at 09:13
 Low Barometer .....  29.83 at 16:51
 
Dew Point    High .... 46   Low ..... 39
 
 
 Time   Temp  Humi  Rain     Baro  DewPt  Wind
00:00,  77F, 31%, 0.00 in, 29.91, 44F, ---
00:30,  76F, 31%, 0.00 in, 29.91, 43F, ---
01:00,  77F, 29%, 0.00 in, 29.91, 42F, ---
01:30,  77F, 31%, 0.00 in, 29.92, 44F, ---
02:00,  75F, 34%, 0.00 in, 29.92, 45F, ---
02:30,  73F, 36%, 0.00 in, 29.91, 45F, ---
03:00,  73F, 37%, 0.00 in, 29.90, 46F, ---
03:30,  73F, 37%, 0.00 in, 29.91, 46F, ---
04:00,  72F, 37%, 0.00 in, 29.91, 44F, ---
04:30,  72F, 37%, 0.00 in, 29.92, 44F, ---
05:00,  71F, 38%, 0.00 in, 29.92, 45F, ---
05:30,  70F, 39%, 0.00 in, 29.93, 44F, ---
06:00,  69F, 39%, 0.00 in, 29.93, 44F, ---
06:30,  69F, 40%, 0.00 in, 29.94, 44F, ---
07:00,  71F, 40%, 0.00 in, 29.95, 46F, ---
07:30,  75F, 33%, 0.00 in, 29.96, 44F, ---
08:00,  80F, 29%, 0.00 in, 29.96, 45F, ---
08:30,  84F, 26%, 0.00 in, 29.97, 46F, ---
09:00,  87F, 22%, 0.00 in, 29.98, 44F, ---
09:30,  91F, 20%, 0.00 in, 29.98, 45F, ---
10:00,  92F, 18%, 0.00 in, 29.98, 42F, ---
10:30,  94F, 16%, 0.00 in, 29.98, 40F, ---
11:00,  97F, 15%, 0.00 in, 29.97, 42F, ---
11:30,  98F, 14%, 0.00 in, 29.96, 41F, ---
12:00,  100F, 13%, 0.00 in, 29.96, 41F, ---
12:30,  101F, 12%, 0.00 in, 29.94, 39F, ---
13:00,  102F, 12%, 0.00 in, 29.92, 40F, ---
13:30,  103F, 12%, 0.00 in, 29.90, 40F, ---
14:00,  104F, 11%, 0.00 in, 29.89, 39F, ---
14:30,  105F, 12%, 0.00 in, 29.86, 43F, ---
15:00,  104F, 12%, 0.00 in, 29.86, 41F, ---
15:30,  105F, 12%, 0.00 in, 29.85, 43F, ---
16:00,  105F, 11%, 0.00 in, 29.84, 41F, ---
16:30,  105F, 12%, 0.00 in, 29.84, 43F, ---
17:00,  105F, 13%, 0.00 in, 29.84, 45F, ---
17:30,  104F, 14%, 0.00 in, 29.83, 45F, ---
18:00,  102F, 14%, 0.00 in, 29.83, 44F, ---
18:30,  99F, 15%, 0.00 in, 29.84, 43F, ---
19:00,  97F, 16%, 0.00 in, 29.84, 43F, ---
19:30,  94F, 18%, 0.00 in, 29.84, 43F, ---
20:00,  92F, 20%, 0.00 in, 29.85, 45F, ---
20:30,  90F, 20%, 0.00 in, 29.86, 43F, ---
21:00,  87F, 23%, 0.00 in, 29.87, 45F, ---
21:30,  85F, 24%, 0.00 in, 29.88, 44F, ---
22:00,  84F, 25%, 0.00 in, 29.90, 45F, ---
22:30,  83F, 26%, 0.00 in, 29.90, 44F, ---
23:00,  82F, 27%, 0.00 in, 29.91, 45F, ---
23:30,  82F, 27%, 0.00 in, 29.91, 45F, ---
23:59,  83F, 27%, 0.00 in, 29.92, 45F, ---